Boyero, Colorado
Current Conditions -  °F | °C
As of 6:55 PM on Tuesday 21 Oct 2014 (Local Time) from KLIC Reporting Station
Clear Clear  
Wind Chill: 57°   Ceiling: Unl
Heat Index: 57°   Visibility: 10mi
Dew Point: 38°   Wind: 8mph
Humidity: 49%   Direction: 150°SSE
Pressure: 29.95"   Gusts: NA
Location:  38.9913°N, 103.506°W
Report Text: KLIC 220055Z AUTO 15007KT 10SM CLR 14/03 A2995 RMK AO2 SLP116 T01390033
Loading
Personal Weather Stations






























Interactive Weather Map
Tropical Storm Tracking
New forecast layout! Learn more

10-Day Weather Forecast

Advertisements
Track Severe Weather on mobile